createdAt,value
2022-08-22T00:02:22.907Z,17.40
2022-08-22T00:02:43.290Z,20.30
2022-08-22T00:02:48.677Z,21.00
2022-08-22T00:02:49.264Z,20.00
2022-08-22T00:03:15.539Z,17.40
2022-08-22T00:03:48.803Z,17.40
2022-08-22T00:05:11.771Z,17.30
2022-08-22T00:06:24.271Z,17.30
2022-08-22T00:07:34.816Z,17.30
2022-08-22T00:08:48.450Z,17.40
2022-08-22T00:10:08.719Z,17.40
2022-08-22T00:11:25.811Z,17.40
2022-08-22T00:12:34.582Z,17.40
2022-08-22T00:14:04.044Z,17.50
2022-08-22T00:15:43.637Z,17.40
2022-08-22T00:17:21.541Z,17.40
2022-08-22T00:18:35.020Z,17.40
2022-08-22T00:20:02.609Z,17.50
2022-08-22T00:21:27.366Z,17.50
2022-08-22T00:22:57.488Z,17.40
2022-08-22T00:24:26.915Z,17.40
2022-08-22T00:25:46.582Z,17.40
2022-08-22T00:26:48.933Z,17.30
2022-08-22T00:28:11.613Z,17.30
2022-08-22T00:29:19.267Z,17.30
2022-08-22T00:30:21.227Z,17.30
2022-08-22T00:31:26.544Z,17.20
2022-08-22T00:32:59.285Z,17.20
2022-08-22T00:34:32.888Z,17.20
2022-08-22T00:35:47.770Z,17.10
2022-08-22T00:37:21.876Z,17.10
2022-08-22T00:38:35.227Z,17.10
2022-08-22T00:40:03.206Z,17.10
2022-08-22T00:41:28.446Z,17.10
2022-08-22T00:42:54.706Z,17.10
2022-08-22T00:44:26.416Z,17.10
2022-08-22T00:46:06.029Z,17.10
2022-08-22T00:47:38.449Z,17.00
2022-08-22T00:48:42.960Z,17.00
2022-08-22T00:50:19.198Z,17.00
2022-08-22T00:51:44.962Z,16.90
2022-08-22T00:53:12.370Z,16.90
2022-08-22T00:54:43.714Z,16.90
2022-08-22T00:56:21.603Z,16.90
2022-08-22T00:57:52.866Z,16.80
2022-08-22T00:59:23.828Z,16.80
2022-08-22T01:00:29.202Z,16.80
2022-08-22T01:01:37.733Z,16.80
2022-08-22T01:03:11.990Z,16.70
2022-08-22T01:04:55.165Z,16.70
2022-08-22T01:06:04.988Z,16.70
2022-08-22T01:07:38.509Z,16.70
2022-08-22T01:09:01.412Z,16.70
2022-08-22T01:10:35.479Z,16.70
2022-08-22T01:11:43.118Z,16.70
2022-08-22T01:13:10.595Z,16.70
2022-08-22T01:14:37.106Z,16.70
2022-08-22T01:15:40.471Z,16.70
2022-08-22T01:17:07.235Z,16.60
2022-08-22T01:18:25.952Z,16.60
2022-08-22T01:19:55.657Z,16.60
2022-08-22T01:21:35.909Z,16.50
2022-08-22T01:23:21.533Z,16.40
2022-08-22T01:25:07.105Z,16.50
2022-08-22T01:26:20.982Z,16.40
2022-08-22T01:27:41.640Z,16.40
2022-08-22T01:29:04.785Z,16.50
2022-08-22T01:30:48.968Z,16.50
2022-08-22T01:32:15.164Z,16.50
2022-08-22T01:33:35.251Z,16.50
2022-08-22T01:34:56.233Z,16.50
2022-08-22T01:36:32.673Z,16.50
2022-08-22T01:37:59.566Z,16.50
2022-08-22T01:39:42.773Z,16.50
2022-08-22T01:41:02.444Z,16.40
2022-08-22T01:42:22.000Z,16.40
2022-08-22T01:43:51.352Z,16.30
2022-08-22T01:45:31.931Z,16.30
2022-08-22T01:46:47.163Z,16.30
2022-08-22T01:48:00.053Z,16.30
2022-08-22T01:49:26.581Z,16.20
2022-08-22T01:50:37.949Z,16.20
2022-08-22T01:51:59.991Z,16.10
2022-08-22T01:53:05.044Z,16.10
2022-08-22T01:54:21.496Z,16.10
2022-08-22T01:55:38.928Z,16.10
2022-08-22T01:56:45.183Z,16.10
2022-08-22T01:57:59.440Z,16.00
2022-08-22T01:59:10.967Z,16.00
2022-08-22T02:00:18.164Z,16.00
2022-08-22T02:01:40.928Z,16.00
2022-08-22T02:03:19.787Z,16.00
2022-08-22T02:04:52.913Z,16.00
2022-08-22T02:06:05.916Z,16.00
2022-08-22T02:07:19.394Z,16.00
2022-08-22T02:08:33.438Z,16.00
2022-08-22T02:10:23.000Z,16.00
2022-08-22T02:11:54.318Z,16.00
2022-08-22T02:13:25.029Z,16.00
2022-08-22T02:14:32.808Z,16.00
2022-08-22T02:15:40.472Z,16.00
2022-08-22T02:16:47.020Z,16.00
2022-08-22T02:18:12.275Z,16.00
2022-08-22T02:19:16.921Z,15.90
2022-08-22T02:20:25.989Z,15.90
2022-08-22T02:21:56.456Z,15.90
2022-08-22T02:23:04.095Z,15.80
2022-08-22T02:24:19.451Z,15.70
2022-08-22T02:25:30.138Z,15.70
2022-08-22T02:26:46.990Z,15.70
2022-08-22T02:28:06.211Z,15.70
2022-08-22T02:29:17.495Z,15.70
2022-08-22T02:30:25.393Z,15.60
2022-08-22T02:31:54.805Z,15.60
2022-08-22T02:33:12.656Z,15.60
2022-08-22T02:34:20.029Z,15.50
2022-08-22T02:35:31.090Z,15.50
2022-08-22T02:36:58.209Z,15.50
2022-08-22T02:38:09.755Z,15.50
2022-08-22T02:39:32.126Z,15.50
2022-08-22T02:40:59.544Z,15.50
2022-08-22T02:42:27.074Z,15.50
2022-08-22T02:43:49.667Z,15.50
2022-08-22T02:45:19.933Z,15.50
2022-08-22T02:46:28.266Z,15.50
2022-08-22T02:47:35.517Z,15.50
2022-08-22T02:48:59.828Z,15.50
2022-08-22T02:50:36.833Z,15.50
2022-08-22T02:51:53.439Z,15.50
2022-08-22T02:53:21.082Z,15.50
2022-08-22T02:54:30.577Z,15.60
2022-08-22T02:56:06.265Z,15.60
2022-08-22T02:57:47.210Z,15.60
2022-08-22T02:58:59.287Z,15.50
2022-08-22T03:00:31.742Z,15.50
2022-08-22T03:01:40.902Z,15.40
2022-08-22T03:02:45.700Z,15.40
2022-08-22T03:03:48.536Z,15.40
2022-08-22T03:05:22.692Z,15.40
2022-08-22T03:06:43.663Z,15.40
2022-08-22T03:07:56.082Z,15.40
2022-08-22T03:09:16.353Z,15.40
2022-08-22T03:10:26.073Z,15.40
2022-08-22T03:11:32.021Z,15.30
2022-08-22T03:13:21.525Z,15.30
2022-08-22T03:14:43.353Z,15.40
2022-08-22T03:16:14.964Z,15.40
2022-08-22T03:17:25.518Z,15.40
2022-08-22T03:18:54.368Z,15.40
2022-08-22T03:20:12.828Z,15.40
2022-08-22T03:21:57.571Z,15.40
2022-08-22T03:23:36.100Z,15.40
2022-08-22T03:24:50.131Z,15.40
2022-08-22T03:26:25.988Z,15.40
2022-08-22T03:27:33.446Z,15.40
2022-08-22T03:28:58.911Z,15.30
2022-08-22T03:30:16.560Z,15.30
2022-08-22T03:31:24.226Z,15.30
2022-08-22T03:32:50.491Z,15.20
2022-08-22T03:34:15.905Z,15.20
2022-08-22T03:35:34.970Z,15.10
2022-08-22T03:36:37.425Z,15.10
2022-08-22T03:37:42.041Z,15.10
2022-08-22T03:39:19.021Z,15.10
2022-08-22T03:40:33.370Z,15.10
2022-08-22T03:41:59.928Z,15.10
2022-08-22T03:43:21.342Z,15.00
2022-08-22T03:44:55.517Z,15.00
2022-08-22T03:46:17.838Z,15.00
2022-08-22T03:47:25.356Z,14.90
2022-08-22T03:49:01.022Z,14.90
2022-08-22T03:50:28.734Z,14.90
2022-08-22T03:52:02.376Z,14.90
2022-08-22T03:53:15.225Z,14.90
2022-08-22T03:54:49.884Z,14.90
2022-08-22T03:56:16.718Z,14.90
2022-08-22T03:57:50.819Z,14.90
2022-08-22T03:59:09.966Z,14.90
2022-08-22T04:00:36.925Z,14.90
2022-08-22T04:01:41.472Z,14.90
2022-08-22T04:03:07.268Z,14.90
2022-08-22T04:04:21.288Z,14.90
2022-08-22T04:06:02.106Z,14.90
2022-08-22T04:07:31.507Z,14.90
2022-08-22T04:08:49.028Z,14.90
2022-08-22T04:10:28.753Z,15.00
2022-08-22T04:11:49.824Z,14.90
2022-08-22T04:13:13.052Z,14.90
2022-08-22T04:14:14.605Z,14.90
2022-08-22T04:15:16.197Z,14.90
2022-08-22T04:16:44.808Z,14.90
2022-08-22T04:18:11.216Z,14.90
2022-08-22T04:19:39.317Z,14.90
2022-08-22T04:21:10.678Z,14.90
2022-08-22T04:22:20.594Z,14.80
2022-08-22T04:23:52.969Z,14.80
2022-08-22T04:25:10.053Z,14.80
2022-08-22T04:26:26.777Z,14.80
2022-08-22T04:27:43.468Z,14.70
2022-08-22T04:28:50.811Z,14.70
2022-08-22T04:30:16.981Z,14.70
2022-08-22T04:31:24.539Z,14.70
2022-08-22T04:32:44.935Z,14.70
2022-08-22T04:33:49.675Z,14.70
2022-08-22T04:35:06.810Z,14.60
2022-08-22T04:36:17.641Z,14.60
2022-08-22T04:37:43.516Z,14.60
2022-08-22T04:38:58.055Z,14.70
2022-08-22T04:40:24.650Z,14.70
2022-08-22T04:41:53.084Z,14.70
2022-08-22T04:43:03.803Z,14.70
2022-08-22T04:44:16.885Z,14.70
2022-08-22T04:45:23.802Z,14.70
2022-08-22T04:46:41.571Z,14.70
2022-08-22T04:48:00.583Z,14.70
2022-08-22T04:49:24.550Z,14.70
2022-08-22T04:50:43.403Z,14.70
2022-08-22T04:52:02.848Z,14.70
2022-08-22T04:53:28.784Z,14.70
2022-08-22T04:54:43.283Z,14.70
2022-08-22T04:56:07.104Z,14.70
2022-08-22T04:57:10.235Z,14.70
2022-08-22T04:58:41.496Z,14.70
2022-08-22T04:59:43.835Z,14.70
2022-08-22T05:01:11.982Z,14.70
2022-08-22T05:02:22.615Z,14.70
2022-08-22T05:03:26.890Z,14.70
2022-08-22T05:05:01.628Z,14.70
2022-08-22T05:06:05.363Z,14.70
2022-08-22T05:07:33.958Z,14.70
2022-08-22T05:08:40.408Z,14.70
2022-08-22T05:09:47.429Z,14.80
2022-08-22T05:10:50.665Z,14.80
2022-08-22T05:11:58.014Z,14.80
2022-08-22T05:13:06.784Z,14.80
2022-08-22T05:14:36.547Z,14.80
2022-08-22T05:15:43.565Z,14.80
2022-08-22T05:16:50.675Z,14.80
2022-08-22T05:17:56.055Z,14.80
2022-08-22T05:19:03.150Z,14.80
2022-08-22T05:20:11.731Z,14.80
2022-08-22T05:21:16.545Z,14.80
2022-08-22T05:22:24.948Z,14.90
2022-08-22T05:23:39.534Z,14.90
2022-08-22T05:24:46.365Z,14.90
2022-08-22T05:25:52.101Z,15.00
2022-08-22T05:27:00.837Z,15.00
2022-08-22T05:28:11.959Z,15.00
2022-08-22T05:29:18.416Z,15.00
2022-08-22T05:30:24.786Z,15.10
2022-08-22T05:31:31.017Z,15.10
2022-08-22T05:32:50.630Z,15.20
2022-08-22T05:33:56.643Z,15.20
2022-08-22T05:35:01.091Z,15.20
2022-08-22T05:36:25.186Z,15.30
2022-08-22T05:37:49.725Z,15.30
2022-08-22T05:38:59.821Z,15.30
2022-08-22T05:40:02.106Z,15.30
2022-08-22T05:41:10.048Z,15.30
2022-08-22T05:42:37.931Z,15.30
2022-08-22T05:43:43.157Z,15.30
2022-08-22T05:44:44.913Z,15.40
2022-08-22T05:45:47.640Z,15.40
2022-08-22T05:47:04.761Z,15.50
2022-08-22T05:48:20.472Z,15.50
2022-08-22T05:49:40.146Z,15.50
2022-08-22T05:51:05.689Z,15.50
2022-08-22T05:52:29.307Z,15.60
2022-08-22T05:53:42.094Z,15.60
2022-08-22T05:55:03.172Z,15.60
2022-08-22T05:56:10.658Z,15.70
2022-08-22T05:57:30.559Z,15.70
2022-08-22T05:58:54.193Z,15.70
2022-08-22T06:00:05.088Z,15.80
2022-08-22T06:01:20.599Z,15.80
2022-08-22T06:02:29.643Z,15.80
2022-08-22T06:03:41.496Z,15.80
2022-08-22T06:04:58.683Z,15.80
2022-08-22T06:06:11.504Z,15.80
2022-08-22T06:07:31.181Z,15.80
2022-08-22T06:08:38.417Z,15.80
2022-08-22T06:09:46.137Z,15.80
2022-08-22T06:10:54.967Z,15.80
2022-08-22T06:12:40.177Z,15.90
2022-08-22T06:13:53.479Z,15.80
2022-08-22T06:15:12.692Z,15.80
2022-08-22T06:16:38.850Z,15.90
2022-08-22T06:17:52.447Z,16.00
2022-08-22T06:18:54.820Z,16.00
2022-08-22T06:19:57.214Z,16.00
2022-08-22T06:21:06.425Z,16.10
2022-08-22T06:22:09.248Z,16.20
2022-08-22T06:23:26.699Z,16.10
2022-08-22T06:24:28.830Z,16.20
2022-08-22T06:25:33.813Z,16.30
2022-08-22T06:26:48.258Z,16.40
2022-08-22T06:27:51.397Z,16.40
2022-08-22T06:28:58.274Z,16.40
2022-08-22T06:30:03.049Z,16.40
2022-08-22T06:31:06.169Z,16.50
2022-08-22T06:32:16.487Z,16.50
2022-08-22T06:33:38.444Z,16.60
2022-08-22T06:34:44.053Z,16.70
2022-08-22T06:36:18.389Z,16.70
2022-08-22T06:37:33.702Z,16.70
2022-08-22T06:38:54.083Z,16.80
2022-08-22T06:39:56.642Z,16.80
2022-08-22T06:41:06.163Z,16.80
2022-08-22T06:42:16.782Z,16.90
2022-08-22T06:43:19.803Z,16.90
2022-08-22T06:44:26.277Z,17.00
2022-08-22T06:45:31.254Z,17.00
2022-08-22T06:46:36.296Z,17.10
2022-08-22T06:48:00.948Z,17.10
2022-08-22T06:49:05.404Z,17.10
2022-08-22T06:50:13.744Z,17.20
2022-08-22T06:51:17.898Z,17.20
2022-08-22T06:52:23.347Z,17.20
2022-08-22T06:53:34.311Z,17.20
2022-08-22T06:54:43.232Z,17.20
2022-08-22T06:55:50.548Z,17.30
2022-08-22T06:56:54.344Z,17.40
2022-08-22T06:58:03.534Z,17.50
2022-08-22T06:59:10.734Z,17.50
2022-08-22T07:00:15.995Z,17.50
2022-08-22T07:01:24.372Z,17.50
2022-08-22T07:02:42.558Z,17.60
2022-08-22T07:03:51.842Z,17.70
2022-08-22T07:04:53.699Z,17.60
2022-08-22T07:05:56.544Z,17.60
2022-08-22T07:07:00.686Z,17.60
2022-08-22T07:08:12.355Z,17.60
2022-08-22T07:09:26.463Z,17.60
2022-08-22T07:10:28.127Z,17.60
2022-08-22T07:11:32.501Z,17.50
2022-08-22T07:12:39.049Z,17.50
2022-08-22T07:13:44.858Z,17.50
2022-08-22T07:14:51.829Z,17.50
2022-08-22T07:15:59.884Z,17.50
2022-08-22T07:17:04.658Z,17.50
2022-08-22T07:18:27.643Z,17.50
2022-08-22T07:19:38.932Z,17.40
2022-08-22T07:20:45.655Z,17.50
2022-08-22T07:21:48.985Z,17.50
2022-08-22T07:22:57.660Z,17.40
2022-08-22T07:24:01.273Z,17.40
2022-08-22T07:25:09.335Z,17.50
2022-08-22T07:26:22.645Z,17.40
2022-08-22T07:27:55.061Z,17.30
2022-08-22T07:29:14.626Z,17.20
2022-08-22T07:30:27.263Z,17.20
2022-08-22T07:31:37.202Z,17.10
2022-08-22T07:33:21.263Z,17.10
2022-08-22T07:34:33.676Z,17.20
2022-08-22T07:35:42.202Z,17.10
2022-08-22T07:37:26.953Z,17.20
2022-08-22T07:38:35.940Z,17.30
2022-08-22T07:39:43.427Z,17.40
2022-08-22T07:41:05.153Z,17.60
2022-08-22T07:42:18.762Z,17.70
2022-08-22T07:43:27.760Z,17.80
2022-08-22T07:44:38.464Z,18.00
2022-08-22T07:46:01.370Z,18.00
2022-08-22T07:47:12.746Z,18.20
2022-08-22T07:49:05.862Z,18.30
2022-08-22T07:50:08.304Z,18.40
2022-08-22T07:51:17.461Z,18.50
2022-08-22T07:52:20.205Z,18.60
2022-08-22T07:53:31.173Z,18.70
2022-08-22T07:54:53.761Z,18.90
2022-08-22T07:55:57.624Z,19.00
2022-08-22T07:57:07.274Z,19.10
2022-08-22T07:58:13.641Z,19.00
2022-08-22T07:59:19.910Z,18.90
2022-08-22T08:00:23.419Z,18.90
2022-08-22T08:01:26.843Z,18.80
2022-08-22T08:02:29.146Z,18.90
2022-08-22T08:03:31.733Z,19.00
2022-08-22T08:04:40.060Z,19.20
2022-08-22T08:05:44.599Z,19.30
2022-08-22T08:06:50.815Z,19.40
2022-08-22T08:07:54.545Z,19.50
2022-08-22T08:08:57.613Z,19.60
2022-08-22T08:10:12.776Z,19.60
2022-08-22T08:11:18.851Z,19.80
2022-08-22T08:12:33.189Z,19.80
2022-08-22T08:13:37.899Z,19.80
2022-08-22T08:14:45.918Z,20.00
2022-08-22T08:15:49.538Z,20.10
2022-08-22T08:16:57.056Z,20.30
2022-08-22T08:18:05.527Z,20.40
2022-08-22T08:19:08.860Z,20.50
2022-08-22T08:20:14.242Z,20.50
2022-08-22T08:21:30.059Z,20.50
2022-08-22T08:22:32.524Z,20.50
2022-08-22T08:23:46.108Z,20.60
2022-08-22T08:24:49.432Z,20.60
2022-08-22T08:25:57.979Z,20.50
2022-08-22T08:27:21.841Z,20.50
2022-08-22T08:28:36.031Z,20.60
2022-08-22T08:29:38.603Z,20.60
2022-08-22T08:30:47.908Z,20.60
2022-08-22T08:31:49.672Z,20.60
2022-08-22T08:32:59.625Z,20.60
2022-08-22T08:34:24.524Z,20.70
2022-08-22T08:35:29.813Z,20.70
2022-08-22T08:36:53.277Z,20.80
2022-08-22T08:38:01.580Z,20.90
2022-08-22T08:39:13.948Z,20.90
2022-08-22T08:40:49.181Z,20.80
2022-08-22T08:41:50.901Z,20.90
2022-08-22T08:43:27.552Z,20.80
2022-08-22T08:44:57.363Z,20.90
2022-08-22T08:46:33.045Z,21.10
2022-08-22T08:48:07.958Z,21.20
2022-08-22T08:49:23.981Z,21.10
2022-08-22T08:50:48.212Z,21.20
2022-08-22T08:52:16.008Z,21.40
2022-08-22T08:53:35.903Z,21.40
2022-08-22T08:55:22.623Z,21.60
2022-08-22T08:56:47.294Z,21.70
2022-08-22T08:58:17.687Z,21.80
2022-08-22T08:59:47.276Z,21.80
2022-08-22T09:00:57.122Z,21.90
2022-08-22T09:02:33.882Z,21.90
2022-08-22T09:04:15.412Z,22.20
2022-08-22T09:05:29.106Z,22.60
2022-08-22T09:06:44.215Z,22.80
2022-08-22T09:08:27.711Z,22.70
2022-08-22T09:09:54.170Z,22.90
2022-08-22T09:11:04.371Z,23.10
2022-08-22T09:12:38.282Z,23.10
2022-08-22T09:14:02.769Z,23.10
2022-08-22T09:15:05.243Z,23.40
2022-08-22T09:16:29.569Z,23.60
2022-08-22T09:17:53.109Z,23.70
2022-08-22T09:19:20.271Z,23.80
2022-08-22T09:20:49.091Z,23.60
2022-08-22T09:21:57.275Z,23.50
2022-08-22T09:23:14.508Z,23.60
2022-08-22T09:24:36.612Z,23.80
2022-08-22T09:26:19.511Z,24.00
2022-08-22T09:27:34.370Z,24.10
2022-08-22T09:28:41.885Z,24.10
2022-08-22T09:29:57.099Z,24.20
2022-08-22T09:31:44.806Z,24.20
2022-08-22T09:33:03.720Z,24.40
2022-08-22T09:34:29.981Z,24.70
2022-08-22T09:35:38.581Z,24.80
2022-08-22T09:36:55.824Z,24.80
2022-08-22T09:38:26.472Z,24.90
2022-08-22T09:39:54.133Z,24.70
2022-08-22T09:41:25.130Z,24.90
2022-08-22T09:42:37.975Z,25.00
2022-08-22T09:43:56.180Z,24.70
2022-08-22T09:45:39.014Z,24.60
2022-08-22T09:46:49.597Z,25.10
2022-08-22T09:48:07.257Z,25.30
2022-08-22T09:49:36.039Z,25.60
2022-08-22T09:51:13.568Z,25.80
2022-08-22T09:52:48.373Z,26.20
2022-08-22T09:53:58.403Z,26.50
2022-08-22T09:55:07.997Z,26.40
2022-08-22T09:56:26.282Z,26.60
2022-08-22T09:57:59.625Z,26.80
2022-08-22T09:59:13.573Z,27.00
2022-08-22T10:00:35.374Z,27.20
2022-08-22T10:02:06.987Z,27.30
2022-08-22T10:03:25.386Z,27.40
2022-08-22T10:04:56.224Z,27.60
2022-08-22T10:06:05.607Z,27.70
2022-08-22T10:07:51.544Z,27.90
2022-08-22T10:09:08.966Z,27.90
2022-08-22T10:10:40.838Z,27.70
2022-08-22T10:11:49.718Z,27.30
2022-08-22T10:12:51.827Z,27.10
2022-08-22T10:14:02.276Z,27.00
2022-08-22T10:15:22.734Z,26.90
2022-08-22T10:16:43.955Z,27.00
2022-08-22T10:18:30.624Z,27.00
2022-08-22T10:19:43.162Z,27.00
2022-08-22T10:20:58.464Z,27.40
2022-08-22T10:22:20.357Z,27.70
2022-08-22T10:23:51.401Z,27.90
2022-08-22T10:25:18.431Z,28.10
2022-08-22T10:26:47.456Z,28.30
2022-08-22T10:28:14.928Z,28.40
2022-08-22T10:29:49.116Z,28.20
2022-08-22T10:31:02.041Z,28.30
2022-08-22T10:32:27.135Z,28.20
2022-08-22T10:33:38.072Z,28.40
2022-08-22T10:34:47.915Z,28.60
2022-08-22T10:36:00.845Z,28.70
2022-08-22T10:37:39.690Z,28.60
2022-08-22T10:38:54.741Z,28.40
2022-08-22T10:40:14.051Z,28.20
2022-08-22T10:41:42.688Z,28.20
2022-08-22T10:43:12.049Z,28.40
2022-08-22T10:44:27.125Z,28.60
2022-08-22T10:45:36.547Z,28.80
2022-08-22T10:46:57.138Z,28.50
2022-08-22T10:47:58.813Z,28.30
2022-08-22T10:49:07.857Z,28.20
2022-08-22T10:50:21.995Z,28.20
2022-08-22T10:51:28.681Z,28.40
2022-08-22T10:52:35.090Z,28.10
2022-08-22T10:53:59.556Z,27.80
2022-08-22T10:55:20.092Z,27.40
2022-08-22T10:56:50.831Z,27.10
2022-08-22T10:58:08.892Z,27.10
2022-08-22T10:59:20.151Z,27.10
2022-08-22T11:00:46.242Z,27.10
2022-08-22T11:02:06.255Z,27.10
2022-08-22T11:03:28.090Z,27.10
2022-08-22T11:04:42.503Z,26.80
2022-08-22T11:05:50.106Z,26.60
2022-08-22T11:07:33.890Z,26.60
2022-08-22T11:08:58.669Z,26.40
2022-08-22T11:10:09.115Z,26.30
2022-08-22T11:11:26.351Z,26.50
2022-08-22T11:12:43.666Z,26.90
2022-08-22T11:14:00.404Z,27.20
2022-08-22T11:15:39.628Z,27.50
2022-08-22T11:16:44.201Z,28.00
2022-08-22T11:18:04.267Z,28.20
2022-08-22T11:19:34.232Z,28.20
2022-08-22T11:20:54.987Z,28.30
2022-08-22T11:22:34.381Z,28.50
2022-08-22T11:24:07.446Z,28.40
2022-08-22T11:25:38.393Z,28.40
2022-08-22T11:27:07.370Z,28.40
2022-08-22T11:28:40.222Z,28.60
2022-08-22T11:29:59.162Z,28.70
2022-08-22T11:31:09.608Z,28.70
2022-08-22T11:32:17.000Z,28.30
2022-08-22T11:33:47.402Z,27.80
2022-08-22T11:35:24.153Z,27.40
2022-08-22T11:36:34.304Z,27.00
2022-08-22T11:38:06.926Z,27.00
2022-08-22T11:39:19.000Z,27.10
2022-08-22T11:40:56.609Z,27.20
2022-08-22T11:42:23.638Z,27.30
2022-08-22T11:44:04.408Z,27.50
2022-08-22T11:45:07.873Z,27.70
2022-08-22T11:46:30.147Z,27.80
2022-08-22T11:47:47.068Z,27.90
2022-08-22T11:49:00.421Z,28.20
2022-08-22T11:50:13.967Z,28.30
2022-08-22T11:51:53.080Z,28.60
2022-08-22T11:53:33.863Z,28.50
2022-08-22T11:54:58.750Z,28.60
2022-08-22T11:56:18.807Z,28.60
2022-08-22T11:57:32.096Z,28.70
2022-08-22T11:58:33.801Z,28.70
2022-08-22T12:00:00.689Z,28.60
2022-08-22T12:01:17.403Z,28.80
2022-08-22T12:02:40.885Z,29.10
2022-08-22T12:04:05.538Z,29.50
2022-08-22T12:05:21.560Z,29.60
2022-08-22T12:06:45.226Z,29.70
2022-08-22T12:08:10.524Z,29.90
2022-08-22T12:09:31.918Z,30.00
2022-08-22T12:10:47.143Z,30.00
2022-08-22T12:12:25.716Z,30.00
2022-08-22T12:13:51.883Z,30.00
2022-08-22T12:15:23.160Z,29.70
2022-08-22T12:16:31.916Z,29.80
2022-08-22T12:18:01.325Z,29.80
2022-08-22T12:19:32.785Z,30.00
2022-08-22T12:20:55.445Z,30.30
2022-08-22T12:22:34.770Z,30.60
2022-08-22T12:24:19.423Z,30.40
2022-08-22T12:26:11.078Z,30.50
2022-08-22T12:27:40.525Z,30.90
2022-08-22T12:28:57.949Z,31.20
2022-08-22T12:30:19.565Z,31.40
2022-08-22T12:31:47.187Z,31.50
2022-08-22T12:33:09.789Z,31.50
2022-08-22T12:34:36.463Z,31.60
2022-08-22T12:36:02.824Z,31.50
2022-08-22T12:37:52.114Z,31.50
2022-08-22T12:38:57.587Z,31.60
2022-08-22T12:40:33.200Z,31.70
2022-08-22T12:42:05.769Z,31.80
2022-08-22T12:43:39.912Z,31.40
2022-08-22T12:45:07.094Z,31.10
2022-08-22T12:46:16.236Z,30.80
2022-08-22T12:47:32.008Z,31.00
2022-08-22T12:48:55.122Z,31.30
2022-08-22T12:50:31.582Z,31.60
2022-08-22T12:52:04.243Z,31.90
2022-08-22T12:53:43.629Z,32.30
2022-08-22T12:54:56.991Z,32.40
2022-08-22T12:56:16.581Z,32.60
2022-08-22T12:57:55.718Z,32.80
2022-08-22T12:59:14.615Z,33.10
2022-08-22T13:00:26.786Z,32.80
2022-08-22T13:01:43.309Z,32.90
2022-08-22T13:02:46.736Z,32.90
2022-08-22T13:03:53.953Z,32.50
2022-08-22T13:05:02.368Z,32.50
2022-08-22T13:06:36.874Z,32.60
2022-08-22T13:07:43.800Z,32.30
2022-08-22T13:08:47.029Z,31.50
2022-08-22T13:09:54.127Z,31.60
2022-08-22T13:11:15.128Z,31.90
2022-08-22T13:12:27.821Z,31.40
2022-08-22T13:13:38.713Z,31.30
2022-08-22T13:14:44.816Z,31.30
2022-08-22T13:15:58.235Z,31.20
2022-08-22T13:17:33.780Z,31.10
2022-08-22T13:18:46.084Z,31.20
2022-08-22T13:20:10.122Z,31.50
2022-08-22T13:21:17.318Z,31.70
2022-08-22T13:23:12.659Z,32.10
2022-08-22T13:24:38.545Z,32.50
2022-08-22T13:26:01.845Z,32.80
2022-08-22T13:27:08.956Z,33.10
2022-08-22T13:28:13.338Z,32.70
2022-08-22T13:29:27.467Z,31.80
2022-08-22T13:30:43.792Z,31.80
2022-08-22T13:31:53.084Z,32.20
2022-08-22T13:33:08.509Z,32.40
2022-08-22T13:34:39.577Z,32.60
2022-08-22T13:35:51.941Z,32.80
2022-08-22T13:36:59.374Z,32.70
2022-08-22T13:38:12.222Z,32.80
2022-08-22T13:39:14.650Z,32.30
2022-08-22T13:40:28.996Z,31.50
2022-08-22T13:41:35.463Z,31.50
2022-08-22T13:42:47.992Z,31.40
2022-08-22T13:43:57.568Z,31.50
2022-08-22T13:45:10.659Z,31.70
2022-08-22T13:46:12.546Z,32.10
2022-08-22T13:47:17.410Z,32.40
2022-08-22T13:48:23.599Z,32.70
2022-08-22T13:49:36.655Z,32.90
2022-08-22T13:51:03.912Z,33.00
2022-08-22T13:52:28.998Z,33.00
2022-08-22T13:53:49.871Z,33.10
2022-08-22T13:55:12.477Z,32.70
2022-08-22T13:56:22.981Z,32.70
2022-08-22T13:58:06.709Z,32.50
2022-08-22T13:59:51.507Z,32.70
2022-08-22T14:01:10.145Z,33.00
2022-08-22T14:02:37.973Z,33.00
2022-08-22T14:04:17.558Z,33.10
2022-08-22T14:07:06.607Z,32.40
2022-08-22T14:08:31.691Z,32.40
2022-08-22T14:09:53.002Z,32.30
2022-08-22T14:11:06.808Z,32.40
2022-08-22T14:12:32.614Z,32.40
2022-08-22T14:13:44.348Z,32.20
2022-08-22T14:14:54.237Z,31.70
2022-08-22T14:16:06.679Z,31.50
2022-08-22T14:17:28.067Z,31.60
2022-08-22T14:18:44.381Z,31.70
2022-08-22T14:20:02.435Z,31.50
2022-08-22T14:21:27.324Z,31.50
2022-08-22T14:22:35.181Z,31.10
2022-08-22T14:23:37.652Z,31.00
2022-08-22T14:24:55.574Z,31.30
2022-08-22T14:25:57.729Z,31.40
2022-08-22T14:27:09.479Z,31.60
2022-08-22T14:28:29.278Z,31.90
2022-08-22T14:29:53.377Z,32.30
2022-08-22T14:31:00.895Z,32.60
2022-08-22T14:32:12.432Z,32.80
2022-08-22T14:33:25.498Z,33.10
2022-08-22T14:34:34.747Z,32.90
2022-08-22T14:35:52.862Z,32.20
2022-08-22T14:36:58.235Z,32.20
2022-08-22T14:38:29.794Z,32.40
2022-08-22T14:39:48.357Z,32.60
2022-08-22T14:41:05.099Z,32.70
2022-08-22T14:42:23.302Z,32.80
2022-08-22T14:43:34.872Z,32.90
2022-08-22T14:45:09.635Z,32.90
2022-08-22T14:46:19.217Z,32.90
2022-08-22T14:47:55.025Z,32.70
2022-08-22T14:49:14.510Z,32.90
2022-08-22T14:50:35.830Z,33.00
2022-08-22T14:51:38.696Z,33.40
2022-08-22T14:52:45.101Z,33.40
2022-08-22T14:53:46.747Z,32.90
2022-08-22T14:54:48.690Z,32.00
2022-08-22T14:55:58.752Z,31.50
2022-08-22T14:57:10.138Z,31.50
2022-08-22T14:58:18.191Z,31.70
2022-08-22T14:59:50.076Z,32.10
2022-08-22T15:00:53.527Z,32.30
2022-08-22T15:02:02.413Z,32.50
2022-08-22T15:03:28.874Z,32.80
2022-08-22T15:04:39.756Z,32.60
2022-08-22T15:05:48.936Z,31.90
2022-08-22T15:06:55.169Z,31.80
2022-08-22T15:07:59.475Z,31.70
2022-08-22T15:09:08.225Z,31.90
2022-08-22T15:10:24.215Z,32.20
2022-08-22T15:11:32.196Z,32.10
2022-08-22T15:12:38.817Z,32.20
2022-08-22T15:13:51.068Z,32.30
2022-08-22T15:14:56.770Z,32.50
2022-08-22T15:16:06.859Z,32.60
2022-08-22T15:17:11.416Z,32.40
2022-08-22T15:18:33.803Z,32.50
2022-08-22T15:19:42.837Z,32.60
2022-08-22T15:20:52.162Z,32.50
2022-08-22T15:22:14.812Z,32.00
2022-08-22T15:23:23.058Z,31.40
2022-08-22T15:24:24.803Z,31.00
2022-08-22T15:25:36.499Z,30.40
2022-08-22T15:26:52.922Z,30.60
2022-08-22T15:28:05.824Z,30.70
2022-08-22T15:29:17.365Z,31.00
2022-08-22T15:30:44.234Z,31.10
2022-08-22T15:31:51.113Z,31.20
2022-08-22T15:32:53.044Z,31.40
2022-08-22T15:34:06.848Z,31.60
2022-08-22T15:35:08.700Z,31.40
2022-08-22T15:36:22.085Z,31.30
2022-08-22T15:37:23.628Z,31.50
2022-08-22T15:38:36.220Z,31.60
2022-08-22T15:40:02.964Z,31.50
2022-08-22T15:41:36.201Z,31.40
2022-08-22T15:42:48.575Z,31.30
2022-08-22T15:44:00.363Z,31.20
2022-08-22T15:45:03.981Z,31.40
2022-08-22T15:46:21.296Z,31.50
2022-08-22T15:47:34.248Z,31.50
2022-08-22T15:48:39.084Z,31.70
2022-08-22T15:49:51.459Z,31.80
2022-08-22T15:51:03.219Z,31.90
2022-08-22T15:52:14.296Z,31.90
2022-08-22T15:53:28.453Z,32.00
2022-08-22T15:54:46.965Z,32.10
2022-08-22T15:56:11.548Z,32.10
2022-08-22T15:57:22.190Z,32.30
2022-08-22T15:58:24.961Z,32.20
2022-08-22T15:59:54.435Z,32.20
2022-08-22T16:01:19.914Z,32.30
2022-08-22T16:02:50.587Z,32.20
2022-08-22T16:04:04.965Z,32.30
2022-08-22T16:05:09.532Z,32.50
2022-08-22T16:06:11.696Z,32.30
2022-08-22T16:07:27.737Z,32.20
2022-08-22T16:08:48.177Z,32.00
2022-08-22T16:09:54.638Z,31.70
2022-08-22T16:11:02.339Z,31.80
2022-08-22T16:12:23.715Z,31.60
2022-08-22T16:13:30.710Z,31.60
2022-08-22T16:14:35.500Z,31.40
2022-08-22T16:15:54.395Z,31.50
2022-08-22T16:17:06.915Z,31.40
2022-08-22T16:18:08.506Z,31.40
2022-08-22T16:19:21.119Z,31.50
2022-08-22T16:20:45.539Z,31.50
2022-08-22T16:21:47.654Z,31.50
2022-08-22T16:22:57.851Z,31.00
2022-08-22T16:24:00.926Z,30.60
2022-08-22T16:25:05.898Z,30.70
2022-08-22T16:26:09.119Z,30.70
2022-08-22T16:27:22.871Z,30.80
2022-08-22T16:28:57.473Z,30.80
2022-08-22T16:30:05.711Z,30.40
2022-08-22T16:31:19.140Z,30.40
2022-08-22T16:32:28.151Z,30.10
2022-08-22T16:33:38.992Z,30.00
2022-08-22T16:34:45.767Z,29.90
2022-08-22T16:36:18.589Z,29.90
2022-08-22T16:37:45.545Z,29.70
2022-08-22T16:38:54.467Z,29.70
2022-08-22T16:39:58.909Z,29.60